createdAt,value
2022-09-14T00:01:24.235Z,16.99
2022-09-14T00:03:52.126Z,16.98
2022-09-14T00:06:18.876Z,16.93
2022-09-14T00:08:45.134Z,16.91
2022-09-14T00:11:12.299Z,16.87
2022-09-14T00:13:40.895Z,16.86
2022-09-14T00:16:09.889Z,16.84
2022-09-14T00:18:36.218Z,16.82
2022-09-14T00:21:03.028Z,16.80
2022-09-14T00:23:29.318Z,16.81
2022-09-14T00:25:55.597Z,16.81
2022-09-14T00:28:21.938Z,16.80
2022-09-14T00:30:49.542Z,16.77
2022-09-14T00:33:15.810Z,16.76
2022-09-14T00:35:42.063Z,16.71
2022-09-14T00:38:08.342Z,16.67
2022-09-14T00:40:34.627Z,16.64
2022-09-14T00:43:01.495Z,16.57
2022-09-14T00:45:28.228Z,16.52
2022-09-14T00:47:55.930Z,16.49
2022-09-14T00:50:22.464Z,16.47
2022-09-14T00:52:50.173Z,16.45
2022-09-14T00:55:18.909Z,16.46
2022-09-14T00:57:46.846Z,16.38
2022-09-14T01:00:14.751Z,16.34
2022-09-14T01:02:41.171Z,16.33
2022-09-14T01:05:09.980Z,16.30
2022-09-14T01:07:47.643Z,16.27
2022-09-14T01:10:20.746Z,16.30
2022-09-14T01:12:52.769Z,16.28
2022-09-14T01:15:23.572Z,16.28
2022-09-14T01:17:54.946Z,16.28
2022-09-14T01:20:26.066Z,16.25
2022-09-14T01:22:58.945Z,16.19
2022-09-14T01:25:48.583Z,16.22
2022-09-14T01:28:22.392Z,16.18
2022-09-14T01:30:50.688Z,16.12
2022-09-14T01:33:21.901Z,16.10
2022-09-14T01:35:50.966Z,16.09
2022-09-14T01:38:19.063Z,16.08
2022-09-14T01:40:47.032Z,16.10
2022-09-14T01:43:15.219Z,16.11
2022-09-14T01:45:46.285Z,16.07
2022-09-14T01:48:14.222Z,16.15
2022-09-14T01:50:42.558Z,16.16
2022-09-14T01:53:11.306Z,16.15
2022-09-14T01:55:40.995Z,16.11
2022-09-14T01:58:09.617Z,16.12
2022-09-14T02:00:36.581Z,16.11
2022-09-14T02:03:07.401Z,16.12
2022-09-14T02:05:36.930Z,16.13
2022-09-14T02:08:03.391Z,16.12
2022-09-14T02:10:29.930Z,16.13
2022-09-14T02:12:56.471Z,16.13
2022-09-14T02:15:22.995Z,16.15
2022-09-14T02:17:49.601Z,16.13
2022-09-14T02:20:21.394Z,16.12
2022-09-14T02:22:47.681Z,16.12
2022-09-14T02:25:14.293Z,16.07
2022-09-14T02:27:40.555Z,16.05
2022-09-14T02:30:07.739Z,16.05
2022-09-14T02:32:35.674Z,16.03
2022-09-14T02:35:06.838Z,16.03
2022-09-14T02:37:41.378Z,16.05
2022-09-14T02:40:12.944Z,16.08
2022-09-14T02:42:42.271Z,16.11
2022-09-14T02:45:15.289Z,16.13
2022-09-14T02:47:47.856Z,16.13
2022-09-14T02:50:19.811Z,16.12
2022-09-14T02:52:51.542Z,16.12
2022-09-14T02:55:19.563Z,16.10
2022-09-14T02:57:58.623Z,16.07
2022-09-14T03:00:24.893Z,16.05
2022-09-14T03:02:51.163Z,16.02
2022-09-14T03:05:17.440Z,15.99
2022-09-14T03:07:43.719Z,15.93
2022-09-14T03:10:11.317Z,15.94
2022-09-14T03:12:37.740Z,15.91
2022-09-14T03:15:04.331Z,15.86
2022-09-14T03:17:30.614Z,15.83
2022-09-14T03:19:56.875Z,15.82
2022-09-14T03:22:23.237Z,15.81
2022-09-14T03:24:49.515Z,15.75
2022-09-14T03:27:17.110Z,15.74
2022-09-14T03:29:43.410Z,15.71
2022-09-14T03:32:09.696Z,15.70
2022-09-14T03:34:35.967Z,15.68
2022-09-14T03:37:02.240Z,15.66
2022-09-14T03:39:28.548Z,15.62
2022-09-14T03:41:55.009Z,15.60
2022-09-14T03:44:22.610Z,15.66
2022-09-14T03:46:48.892Z,15.59
2022-09-14T03:49:15.189Z,15.58
2022-09-14T03:51:41.456Z,15.53
2022-09-14T03:54:07.737Z,15.53
2022-09-14T03:56:34.015Z,15.54
2022-09-14T03:59:00.271Z,15.53
2022-09-14T04:01:27.893Z,15.48
2022-09-14T04:03:54.155Z,15.47
2022-09-14T04:06:20.414Z,15.43
2022-09-14T04:08:47.270Z,15.42
2022-09-14T04:11:14.854Z,15.44
2022-09-14T04:13:41.479Z,15.41
2022-09-14T04:16:08.026Z,15.43
2022-09-14T04:18:35.666Z,15.39
2022-09-14T04:21:07.385Z,15.40
2022-09-14T04:23:36.592Z,15.42
2022-09-14T04:26:13.495Z,15.41
2022-09-14T04:28:40.199Z,15.42
2022-09-14T04:31:06.935Z,15.45
2022-09-14T04:33:34.071Z,15.39
2022-09-14T04:36:02.998Z,15.39
2022-09-14T04:38:29.994Z,15.41
2022-09-14T04:40:56.679Z,15.40
2022-09-14T04:43:23.479Z,15.37
2022-09-14T04:45:50.168Z,15.34
2022-09-14T04:48:16.444Z,15.34
2022-09-14T04:50:42.720Z,15.36
2022-09-14T04:53:10.339Z,15.36
2022-09-14T04:55:36.981Z,15.34
2022-09-14T04:58:03.688Z,15.35
2022-09-14T05:00:29.980Z,15.36
2022-09-14T05:02:56.287Z,15.36
2022-09-14T05:05:22.570Z,15.34
2022-09-14T05:07:48.826Z,15.33
2022-09-14T05:10:16.457Z,15.30
2022-09-14T05:12:42.730Z,15.28
2022-09-14T05:15:09.435Z,15.26
2022-09-14T05:17:35.698Z,15.29
2022-09-14T05:20:02.197Z,15.27
2022-09-14T05:22:28.475Z,15.28
2022-09-14T05:24:54.726Z,15.28
2022-09-14T05:27:22.369Z,15.27
2022-09-14T05:29:48.646Z,15.27
2022-09-14T05:32:14.932Z,15.28
2022-09-14T05:34:41.214Z,15.30
2022-09-14T05:37:07.479Z,15.30
2022-09-14T05:39:33.761Z,15.29
2022-09-14T05:42:00.038Z,15.26
2022-09-14T05:44:27.650Z,15.26
2022-09-14T05:46:53.999Z,15.25
2022-09-14T05:49:20.338Z,15.26
2022-09-14T05:51:46.589Z,15.27
2022-09-14T05:54:12.871Z,15.25
2022-09-14T05:56:39.135Z,15.26
2022-09-14T05:59:05.432Z,15.25
2022-09-14T06:01:33.150Z,15.23
2022-09-14T06:04:00.182Z,15.21
2022-09-14T06:06:26.765Z,15.18
2022-09-14T06:08:53.307Z,15.19
2022-09-14T06:11:20.751Z,15.19
2022-09-14T06:13:47.247Z,15.19
2022-09-14T06:16:14.715Z,15.18
2022-09-14T06:18:43.573Z,15.16
2022-09-14T06:21:11.270Z,15.17
2022-09-14T06:23:38.003Z,15.15
2022-09-14T06:26:05.300Z,15.13
2022-09-14T06:28:32.059Z,15.13
2022-09-14T06:30:58.339Z,15.11
2022-09-14T06:33:24.670Z,15.09
2022-09-14T06:35:56.299Z,15.09
2022-09-14T06:38:22.862Z,15.09
2022-09-14T06:40:52.507Z,15.09
2022-09-14T06:43:18.891Z,15.04
2022-09-14T06:45:54.319Z,15.05
2022-09-14T06:48:20.581Z,15.06
2022-09-14T06:50:46.868Z,15.03
2022-09-14T06:53:14.477Z,15.00
2022-09-14T06:55:40.729Z,14.98
2022-09-14T06:58:07.000Z,14.97
2022-09-14T07:00:33.277Z,14.96
2022-09-14T07:02:59.612Z,14.94
2022-09-14T07:05:25.938Z,14.93
2022-09-14T07:07:52.203Z,14.92
2022-09-14T07:10:19.867Z,14.92
2022-09-14T07:12:46.139Z,14.93
2022-09-14T07:15:12.532Z,14.94
2022-09-14T07:17:38.838Z,14.97
2022-09-14T07:20:05.854Z,14.96
2022-09-14T07:22:32.971Z,14.99
2022-09-14T07:24:59.236Z,14.99
2022-09-14T07:27:27.077Z,14.96
2022-09-14T07:29:53.364Z,14.96
2022-09-14T07:32:19.833Z,14.97
2022-09-14T07:34:46.832Z,14.97
2022-09-14T07:37:13.107Z,14.99
2022-09-14T07:39:39.414Z,15.01
2022-09-14T07:42:05.806Z,15.00
2022-09-14T07:44:33.421Z,14.99
2022-09-14T07:46:59.678Z,15.01
2022-09-14T07:49:25.962Z,15.01
2022-09-14T07:51:52.502Z,15.00
2022-09-14T07:54:19.044Z,15.04
2022-09-14T07:56:45.513Z,15.06
2022-09-14T07:59:34.523Z,15.05
2022-09-14T08:02:00.263Z,15.08
2022-09-14T08:04:26.578Z,15.15
2022-09-14T08:06:52.858Z,15.19
2022-09-14T08:09:19.136Z,15.23
2022-09-14T08:11:45.399Z,15.25
2022-09-14T08:14:12.274Z,15.25
2022-09-14T08:16:39.136Z,15.28
2022-09-14T08:19:07.661Z,15.26
2022-09-14T08:21:33.976Z,15.26
2022-09-14T08:24:00.260Z,15.27
2022-09-14T08:26:27.058Z,15.29
2022-09-14T08:28:54.247Z,15.32
2022-09-14T08:31:21.666Z,15.33
2022-09-14T08:33:48.719Z,15.32
2022-09-14T08:36:17.135Z,15.29
2022-09-14T08:38:43.654Z,15.28
2022-09-14T08:41:11.993Z,15.25
2022-09-14T08:43:38.642Z,15.24
2022-09-14T08:46:08.733Z,15.27
2022-09-14T08:48:36.833Z,15.26
2022-09-14T08:51:05.366Z,15.27
2022-09-14T08:53:35.824Z,15.28
2022-09-14T08:56:03.570Z,15.25
2022-09-14T08:58:45.056Z,15.26
2022-09-14T09:01:20.234Z,15.31
2022-09-14T09:03:59.134Z,15.33
2022-09-14T09:06:29.108Z,15.28
2022-09-14T09:09:02.410Z,15.27
2022-09-14T09:11:36.821Z,15.24
2022-09-14T09:14:06.623Z,15.23
2022-09-14T09:16:33.024Z,15.22
2022-09-14T09:19:02.626Z,15.23
2022-09-14T09:21:31.053Z,15.28
2022-09-14T09:24:03.062Z,15.33
2022-09-14T09:26:29.938Z,15.35
2022-09-14T09:28:57.403Z,15.34
2022-09-14T09:31:30.299Z,15.37
2022-09-14T09:33:56.651Z,15.34
2022-09-14T09:36:22.940Z,15.34
2022-09-14T09:38:49.200Z,15.33
2022-09-14T09:41:19.138Z,15.29
2022-09-14T09:43:58.660Z,15.28
2022-09-14T09:46:25.071Z,15.26
2022-09-14T09:48:51.899Z,15.23
2022-09-14T09:51:26.451Z,15.18
2022-09-14T09:53:54.053Z,15.16
2022-09-14T09:56:23.734Z,15.15
2022-09-14T09:58:50.002Z,15.17
2022-09-14T10:01:18.932Z,15.19
2022-09-14T10:03:59.154Z,15.23
2022-09-14T10:06:25.450Z,15.26
2022-09-14T10:08:53.486Z,15.27
2022-09-14T10:11:32.293Z,15.28
2022-09-14T10:13:59.066Z,15.27
2022-09-14T10:16:27.098Z,15.27
2022-09-14T10:18:53.843Z,15.27
2022-09-14T10:21:20.816Z,15.29
2022-09-14T10:24:01.470Z,15.30
2022-09-14T10:26:31.035Z,15.33
2022-09-14T10:29:18.627Z,15.30
2022-09-14T10:31:45.980Z,15.26
2022-09-14T10:34:18.280Z,15.27
2022-09-14T10:36:47.583Z,15.32
2022-09-14T10:39:21.171Z,15.34
2022-09-14T10:41:55.625Z,15.34
2022-09-14T10:44:33.743Z,15.36
2022-09-14T10:47:07.054Z,15.38
2022-09-14T10:49:41.162Z,15.38
2022-09-14T10:52:14.722Z,15.41
2022-09-14T10:55:02.980Z,15.47
2022-09-14T10:57:34.788Z,15.52
2022-09-14T11:00:04.863Z,15.47
2022-09-14T11:02:46.136Z,15.47
2022-09-14T11:05:15.057Z,15.47
2022-09-14T11:07:45.675Z,15.48
2022-09-14T11:10:16.826Z,15.47
2022-09-14T11:12:48.883Z,15.47
2022-09-14T11:15:19.978Z,15.48
2022-09-14T11:17:53.844Z,15.49
2022-09-14T11:20:24.206Z,15.54
2022-09-14T11:22:55.239Z,15.55
2022-09-14T11:25:23.691Z,15.51
2022-09-14T11:27:51.305Z,15.53
2022-09-14T11:30:20.258Z,15.53
2022-09-14T11:32:48.501Z,15.54
2022-09-14T11:35:18.252Z,15.52
2022-09-14T11:37:46.783Z,15.53
2022-09-14T11:40:16.450Z,15.56
2022-09-14T11:42:45.416Z,15.57
2022-09-14T11:45:15.669Z,15.54
2022-09-14T11:47:46.475Z,15.53
2022-09-14T11:50:18.228Z,15.54
2022-09-14T11:52:44.488Z,15.57
2022-09-14T11:55:15.553Z,15.61
2022-09-14T11:57:44.074Z,15.62
2022-09-14T12:00:40.641Z,15.61
2022-09-14T12:03:16.008Z,15.56
2022-09-14T12:05:42.611Z,15.56
2022-09-14T12:08:41.810Z,15.58
2022-09-14T12:11:24.986Z,15.60
2022-09-14T12:14:12.500Z,15.62
2022-09-14T12:16:53.651Z,15.66
2022-09-14T12:19:21.307Z,15.69
2022-09-14T12:21:47.862Z,15.70
2022-09-14T12:24:14.871Z,15.71
2022-09-14T12:26:41.191Z,15.73
2022-09-14T12:29:28.455Z,15.76
2022-09-14T12:32:13.550Z,15.79
2022-09-14T12:34:41.146Z,15.82
2022-09-14T12:37:28.182Z,15.87
2022-09-14T12:40:15.400Z,15.88
2022-09-14T12:42:41.783Z,15.87
2022-09-14T12:45:26.532Z,15.95
2022-09-14T12:47:52.853Z,15.90
2022-09-14T12:50:21.683Z,15.94
2022-09-14T12:53:02.836Z,15.96
2022-09-14T12:55:42.545Z,15.99
2022-09-14T12:58:13.934Z,15.98
2022-09-14T13:00:49.942Z,15.99
2022-09-14T13:03:25.484Z,15.99
2022-09-14T13:05:53.214Z,15.97
2022-09-14T13:08:22.306Z,15.92
2022-09-14T13:10:50.634Z,15.92
2022-09-14T13:13:17.927Z,15.90
2022-09-14T13:15:50.727Z,15.89
2022-09-14T13:18:30.917Z,15.89
2022-09-14T13:20:59.651Z,15.92
2022-09-14T13:23:27.862Z,15.93
2022-09-14T13:25:54.381Z,15.89
2022-09-14T13:28:20.847Z,15.88
2022-09-14T13:30:53.667Z,15.88
2022-09-14T13:33:20.240Z,15.91
2022-09-14T13:35:47.781Z,15.90
2022-09-14T13:38:17.048Z,15.93
2022-09-14T13:40:45.648Z,15.97
2022-09-14T13:43:12.081Z,16.02
2022-09-14T13:45:39.068Z,16.05
2022-09-14T13:48:05.980Z,16.08
2022-09-14T13:50:33.631Z,16.08
2022-09-14T13:53:03.050Z,16.08
2022-09-14T13:55:43.541Z,16.10
2022-09-14T13:58:14.226Z,16.12
2022-09-14T14:00:55.451Z,16.13
2022-09-14T14:03:26.791Z,16.14
2022-09-14T14:05:53.145Z,16.13
2022-09-14T14:08:24.960Z,16.12
2022-09-14T14:10:53.403Z,16.11
2022-09-14T14:13:24.540Z,16.13
2022-09-14T14:15:50.806Z,16.16
2022-09-14T14:18:29.791Z,16.17
2022-09-14T14:21:03.760Z,16.15
2022-09-14T14:23:30.018Z,16.15
2022-09-14T14:26:07.048Z,16.13
2022-09-14T14:28:33.379Z,16.12
2022-09-14T14:31:02.241Z,16.08
2022-09-14T14:33:31.487Z,16.07
2022-09-14T14:35:57.783Z,15.97
2022-09-14T14:38:24.615Z,15.96
2022-09-14T14:40:51.885Z,15.97
2022-09-14T14:43:20.581Z,15.94
2022-09-14T14:45:47.507Z,15.96
2022-09-14T14:48:13.833Z,15.97
2022-09-14T14:50:40.111Z,15.85
2022-09-14T14:53:06.400Z,15.82
2022-09-14T14:55:32.772Z,15.76
2022-09-14T14:58:00.108Z,15.85
2022-09-14T15:00:28.399Z,15.78
2022-09-14T15:02:54.654Z,15.65
2022-09-14T15:05:20.951Z,15.54
2022-09-14T15:07:47.295Z,15.53
2022-09-14T15:10:14.402Z,15.48
2022-09-14T15:12:40.682Z,15.48
2022-09-14T15:15:11.334Z,15.50
2022-09-14T15:17:38.914Z,15.53
2022-09-14T15:20:05.719Z,15.47
2022-09-14T15:22:31.995Z,15.51
2022-09-14T15:24:58.273Z,15.53
2022-09-14T15:27:24.588Z,15.56
2022-09-14T15:29:50.851Z,15.53
2022-09-14T15:32:17.119Z,15.55
2022-09-14T15:34:44.707Z,15.53
2022-09-14T15:37:10.966Z,15.57
2022-09-14T15:39:37.266Z,15.54
2022-09-14T15:42:03.793Z,15.55
2022-09-14T15:44:30.054Z,15.56
2022-09-14T15:46:56.538Z,15.58
2022-09-14T15:49:23.691Z,15.59
2022-09-14T15:51:52.010Z,15.58
2022-09-14T15:54:19.055Z,15.60
2022-09-14T15:56:47.768Z,15.59
2022-09-14T15:59:14.056Z,15.62
2022-09-14T16:01:40.394Z,15.64
2022-09-14T16:04:11.568Z,15.64
2022-09-14T16:06:38.385Z,15.68
2022-09-14T16:09:07.663Z,15.69
2022-09-14T16:11:34.646Z,15.68
2022-09-14T16:14:01.258Z,15.67
2022-09-14T16:16:27.605Z,15.67
2022-09-14T16:18:53.930Z,15.66
2022-09-14T16:21:21.356Z,15.69
2022-09-14T16:23:49.223Z,15.72
2022-09-14T16:26:17.691Z,15.74
2022-09-14T16:28:44.716Z,15.70
2022-09-14T16:31:11.982Z,15.71
2022-09-14T16:33:38.526Z,15.70
2022-09-14T16:36:05.831Z,15.71
2022-09-14T16:38:32.144Z,15.72
2022-09-14T16:40:58.711Z,15.74
2022-09-14T16:43:26.374Z,15.77
2022-09-14T16:45:59.776Z,15.78
2022-09-14T16:48:26.102Z,15.81
2022-09-14T16:50:52.651Z,15.79
2022-09-14T16:53:18.911Z,15.77
2022-09-14T16:55:45.192Z,15.76
2022-09-14T16:58:11.786Z,15.76
2022-09-14T17:00:42.396Z,15.74
2022-09-14T17:03:10.436Z,15.71
2022-09-14T17:05:36.727Z,15.67
2022-09-14T17:08:03.014Z,15.67
2022-09-14T17:10:32.704Z,15.63
2022-09-14T17:12:59.002Z,15.60
2022-09-14T17:15:25.281Z,15.57
2022-09-14T17:17:52.906Z,15.58
2022-09-14T17:20:19.258Z,15.53
2022-09-14T17:22:45.539Z,15.48
2022-09-14T17:25:16.227Z,15.41
2022-09-14T17:27:43.159Z,15.38
2022-09-14T17:30:09.844Z,15.36
2022-09-14T17:32:36.106Z,15.33
2022-09-14T17:35:03.959Z,15.30
2022-09-14T17:37:30.216Z,15.28
2022-09-14T17:39:56.537Z,15.26
2022-09-14T17:42:22.830Z,15.22
2022-09-14T17:44:49.107Z,15.19
2022-09-14T17:47:15.403Z,15.14
2022-09-14T17:49:41.696Z,15.12
2022-09-14T17:52:09.319Z,15.11
2022-09-14T17:54:35.597Z,15.09
2022-09-14T17:57:01.874Z,15.07
2022-09-14T17:59:28.158Z,15.06
2022-09-14T18:01:54.432Z,15.06
2022-09-14T18:04:21.225Z,15.06
2022-09-14T18:06:48.416Z,15.04
2022-09-14T18:09:16.937Z,15.03
2022-09-14T18:11:43.642Z,15.01
2022-09-14T18:14:09.927Z,15.00
2022-09-14T18:16:36.236Z,14.98
2022-09-14T18:19:02.584Z,14.96
2022-09-14T18:21:28.867Z,14.96
2022-09-14T18:23:55.505Z,14.93
2022-09-14T18:26:23.958Z,14.90
2022-09-14T18:28:51.107Z,14.89
2022-09-14T18:31:18.350Z,14.88
2022-09-14T18:33:48.250Z,14.86
2022-09-14T18:36:14.555Z,14.83
2022-09-14T18:38:40.954Z,14.81
2022-09-14T18:41:08.245Z,14.79
2022-09-14T18:43:36.284Z,14.78
2022-09-14T18:46:04.880Z,14.75
2022-09-14T18:48:31.244Z,14.75
2022-09-14T18:50:59.399Z,14.74
2022-09-14T18:53:25.671Z,14.72
2022-09-14T18:55:51.931Z,14.72
2022-09-14T18:58:18.203Z,14.71
2022-09-14T19:00:45.897Z,14.67
2022-09-14T19:03:12.252Z,14.63
2022-09-14T19:05:39.429Z,14.63
2022-09-14T19:08:05.730Z,14.59
2022-09-14T19:10:31.992Z,14.55
2022-09-14T19:12:58.263Z,14.53
2022-09-14T19:15:24.558Z,14.50
2022-09-14T19:17:52.148Z,14.48
2022-09-14T19:20:18.446Z,14.45
2022-09-14T19:22:44.699Z,14.42
2022-09-14T19:25:10.955Z,14.38
2022-09-14T19:27:37.216Z,14.34
2022-09-14T19:30:03.837Z,14.29
2022-09-14T19:32:30.112Z,14.26
2022-09-14T19:34:57.724Z,14.25
2022-09-14T19:37:24.086Z,14.23
2022-09-14T19:39:50.641Z,14.17
2022-09-14T19:42:16.949Z,14.13
2022-09-14T19:44:43.195Z,14.09
2022-09-14T19:47:09.489Z,14.07
2022-09-14T19:49:35.767Z,14.07
2022-09-14T19:52:03.780Z,14.06
2022-09-14T19:54:30.055Z,14.04
2022-09-14T19:56:56.351Z,14.00
2022-09-14T19:59:22.767Z,13.96
2022-09-14T20:01:49.111Z,13.93
2022-09-14T20:04:15.484Z,13.89
2022-09-14T20:06:43.242Z,13.88
2022-09-14T20:09:12.002Z,13.85
2022-09-14T20:11:39.181Z,13.83
2022-09-14T20:14:07.335Z,13.83
2022-09-14T20:16:34.663Z,13.81
2022-09-14T20:19:03.633Z,13.80
2022-09-14T20:21:29.958Z,13.79
2022-09-14T20:24:16.257Z,13.77
2022-09-14T20:26:44.481Z,13.75
2022-09-14T20:29:10.947Z,13.69
2022-09-14T20:31:37.303Z,13.62
2022-09-14T20:34:03.851Z,13.60
2022-09-14T20:36:30.147Z,13.58
2022-09-14T20:38:57.607Z,13.53
2022-09-14T20:41:25.055Z,13.51
2022-09-14T20:43:53.180Z,13.53
2022-09-14T20:46:20.418Z,13.52
2022-09-14T20:48:47.005Z,13.53
2022-09-14T20:51:17.220Z,13.53
2022-09-14T20:53:46.552Z,13.52
2022-09-14T20:56:14.448Z,13.49
2022-09-14T20:58:41.097Z,13.48
2022-09-14T21:01:09.533Z,13.51
2022-09-14T21:03:36.627Z,13.51
2022-09-14T21:06:04.353Z,13.51
2022-09-14T21:08:31.446Z,13.47
2022-09-14T21:10:57.748Z,13.43
2022-09-14T21:13:24.034Z,13.46
2022-09-14T21:15:50.322Z,13.38
2022-09-14T21:18:20.722Z,13.41
2022-09-14T21:20:47.162Z,13.40
2022-09-14T21:23:13.423Z,13.36
2022-09-14T21:25:39.704Z,13.34
2022-09-14T21:28:05.999Z,13.34
2022-09-14T21:30:32.283Z,13.34
2022-09-14T21:32:58.665Z,13.33
2022-09-14T21:35:32.895Z,13.30
2022-09-14T21:37:59.915Z,13.27
2022-09-14T21:40:26.181Z,13.29
2022-09-14T21:42:53.503Z,13.27
2022-09-14T21:45:19.781Z,13.30
2022-09-14T21:47:46.045Z,13.30
2022-09-14T21:50:12.328Z,13.37
2022-09-14T21:52:43.304Z,13.36
2022-09-14T21:55:09.798Z,13.35
2022-09-14T21:57:36.144Z,13.34
2022-09-14T22:00:03.276Z,13.37
2022-09-14T22:02:29.594Z,13.35
2022-09-14T22:04:55.951Z,13.36
2022-09-14T22:07:22.228Z,13.40
2022-09-14T22:09:49.827Z,13.42
2022-09-14T22:12:16.103Z,13.39
2022-09-14T22:14:42.387Z,13.39
2022-09-14T22:17:08.635Z,13.35
2022-09-14T22:19:34.945Z,13.35
2022-09-14T22:22:01.304Z,13.36
2022-09-14T22:24:31.286Z,13.38
2022-09-14T22:27:01.590Z,13.37
2022-09-14T22:29:28.354Z,13.39
2022-09-14T22:31:54.625Z,13.40
2022-09-14T22:34:20.893Z,13.42
2022-09-14T22:36:47.279Z,13.43
2022-09-14T22:39:13.738Z,13.46
2022-09-14T22:41:40.031Z,13.48
2022-09-14T22:44:08.111Z,13.48
2022-09-14T22:46:34.925Z,13.51
2022-09-14T22:49:01.202Z,13.52
2022-09-14T22:51:28.159Z,13.52
2022-09-14T22:53:54.719Z,13.55
2022-09-14T22:56:21.696Z,13.58
2022-09-14T22:58:48.519Z,13.60
2022-09-14T23:01:17.378Z,13.62
2022-09-14T23:03:44.130Z,13.64
2022-09-14T23:06:10.545Z,13.66
2022-09-14T23:08:37.068Z,13.65
2022-09-14T23:11:04.063Z,13.65
2022-09-14T23:13:30.426Z,13.66
2022-09-14T23:15:56.711Z,13.68
2022-09-14T23:18:24.329Z,13.68
2022-09-14T23:20:50.670Z,13.68
2022-09-14T23:23:16.935Z,13.67
2022-09-14T23:25:43.212Z,13.62
2022-09-14T23:28:10.419Z,13.59
2022-09-14T23:30:36.927Z,13.57
2022-09-14T23:33:03.654Z,13.59
2022-09-14T23:35:34.633Z,13.57
2022-09-14T23:38:03.276Z,13.54
2022-09-14T23:40:29.566Z,13.52
2022-09-14T23:42:55.884Z,13.51
2022-09-14T23:45:22.144Z,13.49
2022-09-14T23:47:48.423Z,13.50
2022-09-14T23:50:14.735Z,13.50
2022-09-14T23:52:42.350Z,13.50
2022-09-14T23:55:08.924Z,13.48
2022-09-14T23:57:35.231Z,13.48
